createdAt,value
2023-04-16T00:00:58.716Z,8.39
2023-04-16T00:05:10.471Z,8.43
2023-04-16T00:09:13.426Z,8.42
2023-04-16T00:13:16.675Z,8.42
2023-04-16T00:17:22.443Z,8.43
2023-04-16T00:21:26.704Z,8.44
2023-04-16T00:25:29.899Z,8.44
2023-04-16T00:29:33.975Z,8.44
2023-04-16T00:33:39.535Z,8.43
2023-04-16T00:37:45.875Z,8.44
2023-04-16T00:41:49.485Z,8.40
2023-04-16T00:45:53.093Z,8.38
2023-04-16T00:49:57.524Z,8.36
2023-04-16T00:54:03.186Z,8.35
2023-04-16T00:58:06.637Z,8.36
2023-04-16T01:02:13.031Z,8.39
2023-04-16T01:06:19.106Z,8.31
2023-04-16T01:10:22.419Z,8.26
2023-04-16T01:14:28.427Z,8.23
2023-04-16T01:18:31.230Z,8.13
2023-04-16T01:22:35.844Z,8.06
2023-04-16T01:26:38.628Z,7.96
2023-04-16T01:30:41.813Z,7.97
2023-04-16T01:34:45.090Z,7.99
2023-04-16T01:38:49.270Z,7.94
2023-04-16T01:42:52.583Z,7.90
2023-04-16T01:46:55.450Z,7.83
2023-04-16T01:51:01.806Z,7.87
2023-04-16T01:55:06.893Z,7.90
2023-04-16T01:59:10.237Z,7.93
2023-04-16T02:03:13.708Z,7.97
2023-04-16T02:07:17.009Z,8.05
2023-04-16T02:11:21.190Z,8.05
2023-04-16T02:15:25.550Z,8.07
2023-04-16T02:19:28.918Z,8.06
2023-04-16T02:23:31.677Z,8.09
2023-04-16T02:27:36.980Z,8.08
2023-04-16T02:31:40.311Z,8.07
2023-04-16T02:35:43.471Z,8.09
2023-04-16T02:39:47.638Z,8.07
2023-04-16T02:43:52.116Z,8.09
2023-04-16T02:47:55.293Z,8.10
2023-04-16T02:51:58.103Z,8.09
2023-04-16T02:56:01.204Z,8.06
2023-04-16T03:00:06.434Z,8.10
2023-04-16T03:04:09.566Z,8.07
2023-04-16T03:08:12.421Z,8.05
2023-04-16T03:12:15.544Z,8.07
2023-04-16T03:16:19.982Z,8.09
2023-04-16T03:20:22.896Z,8.08
2023-04-16T03:24:28.551Z,8.09
2023-04-16T03:28:31.489Z,8.03
2023-04-16T03:32:36.324Z,8.02
2023-04-16T03:36:39.457Z,8.04
2023-04-16T03:40:42.527Z,8.03
2023-04-16T03:44:45.542Z,8.01
2023-04-16T03:48:50.094Z,8.03
2023-04-16T03:52:53.017Z,8.02
2023-04-16T03:56:57.341Z,8.02
2023-04-16T04:01:00.454Z,8.00
2023-04-16T04:05:07.849Z,8.01
2023-04-16T04:09:13.691Z,8.03
2023-04-16T04:13:16.476Z,8.05
2023-04-16T04:17:19.623Z,8.07
2023-04-16T04:21:24.118Z,8.12
2023-04-16T04:25:27.449Z,8.16
2023-04-16T04:29:31.862Z,8.19
2023-04-16T04:33:35.089Z,8.22
2023-04-16T04:37:39.798Z,8.27
2023-04-16T04:41:43.083Z,8.32
2023-04-16T04:45:46.125Z,8.36
2023-04-16T04:49:51.710Z,8.41
2023-04-16T04:53:55.749Z,8.47
2023-04-16T04:58:01.237Z,8.54
2023-04-16T05:02:04.519Z,8.53
2023-04-16T05:06:08.488Z,8.55
2023-04-16T05:10:12.989Z,8.55
2023-04-16T05:14:15.795Z,8.63
2023-04-16T05:18:18.886Z,8.67
2023-04-16T05:22:21.846Z,8.76
2023-04-16T05:26:25.983Z,8.82
2023-04-16T05:30:28.950Z,8.87
2023-04-16T05:34:31.618Z,9.00
2023-04-16T05:38:36.264Z,9.13
2023-04-16T05:42:40.785Z,9.23
2023-04-16T05:46:43.713Z,9.36
2023-04-16T05:50:48.924Z,9.50
2023-04-16T05:54:51.730Z,9.57
2023-04-16T05:58:56.012Z,9.69
2023-04-16T06:02:59.446Z,9.71
2023-04-16T06:07:02.859Z,9.73
2023-04-16T06:11:06.888Z,9.79
2023-04-16T06:15:13.484Z,9.77
2023-04-16T06:19:16.810Z,9.77
2023-04-16T06:23:19.935Z,9.72
2023-04-16T06:27:22.635Z,9.77
2023-04-16T06:31:27.148Z,9.84
2023-04-16T06:35:30.315Z,9.92
2023-04-16T06:39:33.443Z,9.93
2023-04-16T06:43:36.288Z,9.90
2023-04-16T06:47:40.711Z,9.97
2023-04-16T06:51:43.659Z,9.98
2023-04-16T06:55:46.341Z,10.09
2023-04-16T06:59:49.525Z,10.16
2023-04-16T07:03:54.155Z,10.14
2023-04-16T07:07:57.863Z,10.16
2023-04-16T07:12:01.114Z,10.26
2023-04-16T07:16:03.488Z,10.36
2023-04-16T07:20:11.157Z,10.29
2023-04-16T07:24:14.122Z,10.36
2023-04-16T07:28:17.803Z,10.40
2023-04-16T07:32:22.733Z,10.44
2023-04-16T07:36:27.673Z,10.47
2023-04-16T07:40:33.424Z,10.50
2023-04-16T07:44:36.496Z,10.52
2023-04-16T07:48:39.285Z,10.45
2023-04-16T07:52:48.172Z,10.48
2023-04-16T07:56:51.222Z,10.62
2023-04-16T08:00:54.521Z,10.65
2023-04-16T08:04:58.119Z,10.64
2023-04-16T08:09:02.708Z,10.68
2023-04-16T08:13:06.129Z,10.74
2023-04-16T08:17:09.406Z,10.83
2023-04-16T08:21:13.716Z,11.05
2023-04-16T08:25:18.805Z,11.22
2023-04-16T08:29:22.007Z,11.50
2023-04-16T08:33:25.305Z,11.61
2023-04-16T08:37:28.562Z,11.81
2023-04-16T08:41:34.472Z,11.94
2023-04-16T08:45:38.236Z,12.04
2023-04-16T08:49:45.489Z,12.05
2023-04-16T08:53:53.287Z,12.38
2023-04-16T08:58:02.444Z,12.38
2023-04-16T09:02:07.723Z,12.57
2023-04-16T09:06:11.595Z,12.48
2023-04-16T09:10:17.282Z,12.40
2023-04-16T09:14:22.299Z,12.50
2023-04-16T09:18:28.350Z,12.72
2023-04-16T09:22:31.185Z,12.84
2023-04-16T09:26:34.177Z,12.96
2023-04-16T09:30:39.138Z,12.93
2023-04-16T09:34:59.532Z,13.25
2023-04-16T09:39:04.073Z,13.47
2023-04-16T09:43:13.021Z,13.53
2023-04-16T09:47:17.256Z,13.74
2023-04-16T09:51:20.443Z,14.15
2023-04-16T09:55:24.995Z,14.48
2023-04-16T09:59:31.375Z,14.45
2023-04-16T10:03:37.264Z,14.24
2023-04-16T10:07:40.703Z,14.46
2023-04-16T10:11:46.143Z,14.29
2023-04-16T10:15:50.076Z,13.95
2023-04-16T10:19:59.169Z,14.01
2023-04-16T10:24:02.775Z,14.42
2023-04-16T10:28:07.503Z,14.72
2023-04-16T10:32:10.970Z,14.70
2023-04-16T10:36:16.027Z,14.70
2023-04-16T10:40:26.888Z,14.74
2023-04-16T10:44:35.644Z,15.08
2023-04-16T10:48:49.645Z,14.74
2023-04-16T10:53:34.865Z,14.31
2023-04-16T10:57:37.910Z,13.97
2023-04-16T11:01:44.397Z,13.55
2023-04-16T11:05:50.156Z,13.65
2023-04-16T11:09:56.940Z,13.98
2023-04-16T11:14:00.140Z,14.23
2023-04-16T11:18:04.240Z,14.24
2023-04-16T11:22:07.124Z,14.21
2023-04-16T11:26:21.055Z,14.18
2023-04-16T11:30:32.025Z,14.24
2023-04-16T11:34:35.346Z,14.32
2023-04-16T11:38:41.266Z,14.21
2023-04-16T11:42:45.559Z,14.34
2023-04-16T11:46:48.663Z,14.42
2023-04-16T11:50:58.282Z,14.59
2023-04-16T11:55:01.756Z,14.47
2023-04-16T11:59:11.488Z,14.42
2023-04-16T12:03:17.670Z,14.78
2023-04-16T12:07:20.826Z,15.00
2023-04-16T12:11:38.636Z,14.92
2023-04-16T12:15:51.118Z,15.24
2023-04-16T12:19:58.395Z,15.04
2023-04-16T12:24:01.482Z,14.96
2023-04-16T12:28:04.763Z,14.74
2023-04-16T12:32:22.675Z,15.11
2023-04-16T12:36:26.471Z,15.52
2023-04-16T12:40:29.798Z,15.72
2023-04-16T12:44:32.883Z,15.86
2023-04-16T12:48:38.299Z,15.86
2023-04-16T12:52:41.339Z,15.64
2023-04-16T12:56:44.223Z,15.41
2023-04-16T13:00:47.062Z,15.63
2023-04-16T13:04:51.480Z,16.09
2023-04-16T13:08:56.697Z,16.60
2023-04-16T13:12:59.522Z,16.74
2023-04-16T13:17:05.187Z,17.14
2023-04-16T13:21:10.142Z,17.25
2023-04-16T13:25:13.179Z,17.69
2023-04-16T13:29:16.016Z,17.89
2023-04-16T13:33:22.278Z,17.98
2023-04-16T13:37:26.786Z,17.41
2023-04-16T13:41:29.539Z,17.08
2023-04-16T13:45:32.705Z,17.04
2023-04-16T13:49:38.466Z,16.42
2023-04-16T13:53:43.311Z,15.94
2023-04-16T13:57:47.651Z,15.59
2023-04-16T14:01:50.786Z,15.41
2023-04-16T14:05:54.106Z,15.23
2023-04-16T14:09:58.785Z,15.22
2023-04-16T14:14:02.005Z,15.07
2023-04-16T14:18:05.279Z,14.69
2023-04-16T14:22:09.381Z,14.46
2023-04-16T14:26:14.141Z,14.10
2023-04-16T14:30:17.324Z,13.94
2023-04-16T14:34:19.906Z,13.81
2023-04-16T14:38:25.903Z,13.66
2023-04-16T14:42:33.267Z,13.60
2023-04-16T14:46:38.811Z,13.72
2023-04-16T14:50:44.290Z,13.82
2023-04-16T14:54:49.118Z,13.97
2023-04-16T14:58:53.834Z,14.22
2023-04-16T15:02:56.885Z,14.42
2023-04-16T15:07:00.470Z,14.62
2023-04-16T15:11:03.796Z,14.78
2023-04-16T15:15:12.094Z,15.02
2023-04-16T15:19:15.406Z,15.25
2023-04-16T15:23:18.487Z,15.31
2023-04-16T15:27:21.573Z,15.23
2023-04-16T15:31:26.526Z,14.98
2023-04-16T15:35:29.996Z,14.69
2023-04-16T15:39:33.323Z,14.40
2023-04-16T15:43:37.748Z,14.12
2023-04-16T15:47:42.528Z,13.81
2023-04-16T15:51:45.416Z,13.55
2023-04-16T15:55:49.896Z,13.38
2023-04-16T16:00:06.039Z,13.27
2023-04-16T16:04:11.618Z,13.24
2023-04-16T16:08:18.627Z,13.20
2023-04-16T16:12:21.445Z,13.06
2023-04-16T16:16:24.569Z,12.95
2023-04-16T16:20:32.250Z,12.83
2023-04-16T16:24:35.793Z,12.75
2023-04-16T16:28:43.970Z,12.65
2023-04-16T16:32:49.604Z,12.53
2023-04-16T16:36:54.118Z,12.43
2023-04-16T16:40:57.175Z,12.30
2023-04-16T16:44:59.967Z,12.20
2023-04-16T16:49:05.423Z,12.10
2023-04-16T16:53:10.021Z,11.95
2023-04-16T16:57:18.580Z,11.82
2023-04-16T17:01:21.426Z,11.69
2023-04-16T17:05:25.928Z,11.58
2023-04-16T17:09:30.365Z,11.46
2023-04-16T17:13:34.555Z,11.30
2023-04-16T17:17:41.897Z,11.12
2023-04-16T17:21:44.753Z,10.93
2023-04-16T17:25:49.205Z,10.75
2023-04-16T17:29:55.913Z,10.62
2023-04-16T17:34:00.381Z,10.46
2023-04-16T17:38:03.632Z,10.35
2023-04-16T17:42:08.032Z,10.22
2023-04-16T17:46:15.045Z,10.13
2023-04-16T17:50:18.109Z,10.05
2023-04-16T17:54:21.312Z,9.97
2023-04-16T17:58:26.629Z,9.87
2023-04-16T18:02:32.392Z,9.76
2023-04-16T18:06:38.354Z,9.65
2023-04-16T18:10:43.248Z,9.54
2023-04-16T18:14:47.792Z,9.48
2023-04-16T18:18:51.030Z,9.37
2023-04-16T18:22:54.175Z,9.23
2023-04-16T18:26:56.893Z,9.13
2023-04-16T18:31:05.716Z,9.07
2023-04-16T18:35:09.518Z,9.02
2023-04-16T18:39:14.473Z,8.95
2023-04-16T18:43:27.906Z,8.82
2023-04-16T18:47:32.263Z,8.73
2023-04-16T18:51:35.608Z,8.64
2023-04-16T18:55:38.524Z,8.58
2023-04-16T18:59:41.341Z,8.55
2023-04-16T19:03:45.666Z,8.51
2023-04-16T19:07:48.971Z,8.47
2023-04-16T19:11:51.852Z,8.36
2023-04-16T19:16:00.067Z,8.21
2023-04-16T19:20:08.102Z,8.05
2023-04-16T19:24:13.661Z,7.97
2023-04-16T19:28:17.196Z,7.85
2023-04-16T19:32:20.151Z,7.69
2023-04-16T19:36:25.002Z,7.60
2023-04-16T19:40:28.120Z,7.50
2023-04-16T19:44:32.578Z,7.36
2023-04-16T19:48:37.317Z,7.21
2023-04-16T19:52:41.354Z,7.07
2023-04-16T19:56:46.709Z,6.94
2023-04-16T20:00:51.568Z,6.82
2023-04-16T20:04:54.558Z,6.75
2023-04-16T20:09:01.655Z,6.68
2023-04-16T20:13:05.125Z,6.52
2023-04-16T20:17:10.339Z,6.42
2023-04-16T20:21:16.883Z,6.35
2023-04-16T20:25:22.827Z,6.28
2023-04-16T20:29:25.862Z,6.31
2023-04-16T20:33:31.267Z,6.29
2023-04-16T20:37:38.297Z,6.31
2023-04-16T20:41:44.439Z,6.28
2023-04-16T20:45:47.676Z,6.29
2023-04-16T20:49:50.926Z,6.20
2023-04-16T20:53:59.511Z,6.14
2023-04-16T20:58:04.235Z,6.07
2023-04-16T21:02:09.464Z,5.99
2023-04-16T21:06:14.861Z,5.97
2023-04-16T21:10:20.491Z,5.97
2023-04-16T21:14:25.230Z,5.95
2023-04-16T21:18:28.403Z,5.95
2023-04-16T21:22:31.348Z,5.88
2023-04-16T21:26:34.246Z,5.78
2023-04-16T21:30:39.096Z,5.79
2023-04-16T21:34:42.403Z,5.77
2023-04-16T21:38:45.718Z,5.72
2023-04-16T21:42:49.007Z,5.66
2023-04-16T21:46:53.191Z,5.60
2023-04-16T21:50:58.299Z,5.54
2023-04-16T21:55:01.296Z,5.51
2023-04-16T21:59:04.027Z,5.50
2023-04-16T22:03:09.171Z,5.47
2023-04-16T22:07:12.295Z,5.42
2023-04-16T22:11:24.710Z,5.34
2023-04-16T22:15:37.124Z,5.27
2023-04-16T22:19:42.550Z,5.20
2023-04-16T22:23:49.687Z,5.15
2023-04-16T22:27:56.310Z,5.18
2023-04-16T22:32:02.405Z,5.11
2023-04-16T22:36:07.680Z,4.94
2023-04-16T22:40:14.394Z,4.77
2023-04-16T22:44:17.174Z,4.65
2023-04-16T22:48:20.025Z,4.67
2023-04-16T22:52:24.534Z,4.95
2023-04-16T22:56:29.101Z,5.24
2023-04-16T23:00:32.230Z,5.47
2023-04-16T23:04:35.259Z,5.62
2023-04-16T23:08:42.192Z,5.79
2023-04-16T23:12:45.089Z,5.95
2023-04-16T23:16:48.160Z,6.06
2023-04-16T23:20:53.103Z,6.11
2023-04-16T23:24:57.260Z,6.14
2023-04-16T23:29:00.753Z,6.16
2023-04-16T23:33:04.718Z,6.15
2023-04-16T23:37:07.584Z,6.10
2023-04-16T23:41:12.072Z,6.01
2023-04-16T23:45:14.960Z,5.92
2023-04-16T23:49:17.696Z,5.88
2023-04-16T23:53:20.964Z,5.90
2023-04-16T23:57:25.166Z,5.91
